Observations for LAS VEGAS MCCARRAN, NV (LAS)

KLAS 242056Z 25009G16KT 10SM FEW150 SCT250 36/04 A2979 RMK AO2 SLP056 T03560039 58017   
KLAS 241956Z 21010G16KT 10SM FEW150 SCT250 34/03 A2981 RMK AO2 SLP065 T03440033 
KLAS 241856Z 22008KT 10SM FEW150 SCT250 34/03 A2983 RMK AO2 SLP070 T03440028
KLAS 241756Z VRB06KT 10SM SCT150 SCT250 34/05 A2984 RMK AO2 SLP076 T03390050 10339 20256 50002 $
KLAS 241656Z VRB03KT 10SM SCT150 SCT250 32/06 A2985 RMK AO2 SLP078 T03220056
KLAS 241556Z 18008KT 10SM SCT150 31/05 A2984 RMK AO2 SLP076 T03060050   
KLAS 241456Z 22003KT 10SM FEW150 28/06 A2984 RMK AO2 SLP075 T02830056 53016 
KLAS 241356Z 20005KT 10SM FEW120 26/06 A2982 RMK AO2 SLP069 T02560056   
KLAS 241256Z 18007KT 10SM FEW120 FEW250 26/05 A2980 RMK AO2 SLP062 T02610050
KLAS 241156Z 21007KT 10SM CLR 27/05 A2979 RMK AO2 SLP056 T02720050 10306 20272 55003
KLAS 241056Z 22008KT 10SM CLR 28/05 A2978 RMK AO2 SLP055 T02830050  
KLAS 240956Z 22010KT 10SM CLR 29/04 A2979 RMK AO2 SLP057 T02890044  
KLAS 240856Z 22008KT 10SM FEW250 29/04 A2979 RMK AO2 SLP058 T02940044 53008 
KLAS 240756Z 21006KT 10SM FEW250 29/04 A2978 RMK AO2 SLP055 T02940044 403720261 
KLAS 240656Z 21006KT 10SM CLR 29/04 A2978 RMK AO2 SLP053 T02940044  
KLAS 240556Z 18005KT 10SM FEW110 29/05 A2977 RMK AO2 SLP051 T02940050 10361 20294 51009 
KLAS 240456Z 19005KT 10SM FEW110 31/04 A2976 RMK AO2 SLP049 T03110044   
KLAS 240356Z 23009KT 10SM FEW110 32/04 A2976 RMK AO2 SLP049 T03220044   
KLAS 240256Z 24009KT 10SM FEW110 FEW250 33/04 A2974 RMK AO2 SLP043 T03280044 53001  
KLAS 240156Z 23008KT 10SM FEW110 FEW250 34/03 A2974 RMK AO2 SLP041 T03390033
KLAS 240056Z 24011G18KT 10SM FEW110 35/04 A2973 RMK AO2 SLP039 T03500039
KLAS 232356Z 22014KT 10SM SCT110 36/04 A2974 RMK AO2 SLP040 T03610039 10372 20333 56021 
KLAS 232256Z 24013G19KT 10SM SCT110 37/05 A2975 RMK AO2 SLP043 T03670050
KLAS 232156Z 24010G19KT 10SM SCT110 36/05 A2978 RMK AO2 SLP052 T03560050
KLAS 232056Z 24010KT 10SM SCT110 36/05 A2980 RMK AO2 WSHFT 2007 SLP063 T03610050 58026